sensor_id;sensor_type;location;lat;lon;timestamp;P1;durP1;ratioP1;P2;durP2;ratioP2
49101;SDS011;34913;47.520;19.186;2023-02-28T00:02:20;15.13;;;7.75;;
49101;SDS011;34913;47.520;19.186;2023-02-28T00:04:46;14.93;;;7.53;;
49101;SDS011;34913;47.520;19.186;2023-02-28T00:07:25;15.48;;;7.60;;
49101;SDS011;34913;47.520;19.186;2023-02-28T00:09:51;11.25;;;6.80;;
49101;SDS011;34913;47.520;19.186;2023-02-28T00:12:17;14.13;;;7.07;;
49101;SDS011;34913;47.520;19.186;2023-02-28T00:14:42;13.13;;;7.28;;
49101;SDS011;34913;47.520;19.186;2023-02-28T00:17:07;14.15;;;7.40;;
49101;SDS011;34913;47.520;19.186;2023-02-28T00:19:33;16.48;;;8.80;;
49101;SDS011;34913;47.520;19.186;2023-02-28T00:21:58;14.52;;;8.45;;
49101;SDS011;34913;47.520;19.186;2023-02-28T00:24:24;15.35;;;8.75;;
49101;SDS011;34913;47.520;19.186;2023-02-28T00:26:49;19.23;;;9.23;;
49101;SDS011;34913;47.520;19.186;2023-02-28T00:29:14;17.52;;;9.68;;
49101;SDS011;34913;47.520;19.186;2023-02-28T00:31:40;19.83;;;8.88;;
49101;SDS011;34913;47.520;19.186;2023-02-28T00:34:05;17.40;;;9.43;;
49101;SDS011;34913;47.520;19.186;2023-02-28T00:36:31;16.85;;;8.38;;
49101;SDS011;34913;47.520;19.186;2023-02-28T00:38:56;19.48;;;9.82;;
49101;SDS011;34913;47.520;19.186;2023-02-28T00:41:22;17.58;;;9.13;;
49101;SDS011;34913;47.520;19.186;2023-02-28T00:43:47;19.48;;;10.38;;
49101;SDS011;34913;47.520;19.186;2023-02-28T00:46:12;20.20;;;10.55;;
49101;SDS011;34913;47.520;19.186;2023-02-28T00:48:38;20.15;;;10.52;;
49101;SDS011;34913;47.520;19.186;2023-02-28T00:51:03;23.38;;;10.93;;
49101;SDS011;34913;47.520;19.186;2023-02-28T00:53:29;23.45;;;11.48;;
49101;SDS011;34913;47.520;19.186;2023-02-28T00:55:55;20.33;;;10.43;;
49101;SDS011;34913;47.520;19.186;2023-02-28T00:58:20;14.93;;;8.82;;
49101;SDS011;34913;47.520;19.186;2023-02-28T01:00:46;17.45;;;8.73;;
49101;SDS011;34913;47.520;19.186;2023-02-28T01:03:17;18.23;;;10.32;;
49101;SDS011;34913;47.520;19.186;2023-02-28T01:05:44;21.80;;;11.27;;
49101;SDS011;34913;47.520;19.186;2023-02-28T01:08:10;19.02;;;10.50;;
49101;SDS011;34913;47.520;19.186;2023-02-28T01:10:35;19.75;;;10.10;;
49101;SDS011;34913;47.520;19.186;2023-02-28T01:13:02;24.85;;;13.35;;
49101;SDS011;34913;47.520;19.186;2023-02-28T01:15:27;25.83;;;13.50;;
49101;SDS011;34913;47.520;19.186;2023-02-28T01:17:53;23.35;;;12.40;;
49101;SDS011;34913;47.520;19.186;2023-02-28T01:20:18;22.65;;;12.55;;
49101;SDS011;34913;47.520;19.186;2023-02-28T01:22:44;23.40;;;11.40;;
49101;SDS011;34913;47.520;19.186;2023-02-28T01:25:10;30.60;;;15.52;;
49101;SDS011;34913;47.520;19.186;2023-02-28T01:27:35;25.65;;;13.35;;
49101;SDS011;34913;47.520;19.186;2023-02-28T01:30:01;23.23;;;11.90;;
49101;SDS011;34913;47.520;19.186;2023-02-28T01:32:28;34.35;;;16.15;;
49101;SDS011;34913;47.520;19.186;2023-02-28T01:34:53;29.65;;;15.38;;
49101;SDS011;34913;47.520;19.186;2023-02-28T01:37:19;23.63;;;12.70;;
49101;SDS011;34913;47.520;19.186;2023-02-28T01:39:44;23.85;;;12.23;;
49101;SDS011;34913;47.520;19.186;2023-02-28T01:42:09;26.10;;;12.25;;
49101;SDS011;34913;47.520;19.186;2023-02-28T01:45:14;20.85;;;11.52;;
49101;SDS011;34913;47.520;19.186;2023-02-28T01:47:42;20.05;;;12.18;;
49101;SDS011;34913;47.520;19.186;2023-02-28T01:50:16;22.65;;;11.43;;
49101;SDS011;34913;47.520;19.186;2023-02-28T01:52:45;25.25;;;12.63;;
49101;SDS011;34913;47.520;19.186;2023-02-28T01:55:13;22.30;;;12.23;;
49101;SDS011;34913;47.520;19.186;2023-02-28T01:57:46;25.83;;;13.60;;
49101;SDS011;34913;47.520;19.186;2023-02-28T02:00:18;26.90;;;12.77;;
49101;SDS011;34913;47.520;19.186;2023-02-28T02:02:50;27.02;;;14.25;;
49101;SDS011;34913;47.520;19.186;2023-02-28T02:05:19;25.60;;;13.48;;
49101;SDS011;34913;47.520;19.186;2023-02-28T02:07:46;24.38;;;13.45;;
49101;SDS011;34913;47.520;19.186;2023-02-28T02:10:17;27.35;;;14.68;;
49101;SDS011;34913;47.520;19.186;2023-02-28T02:34:32;17.83;;;10.55;;
49101;SDS011;34913;47.520;19.186;2023-02-28T02:40:09;18.52;;;11.23;;
49101;SDS011;34913;47.520;19.186;2023-02-28T02:42:52;18.05;;;10.32;;
49101;SDS011;34913;47.520;19.186;2023-02-28T02:48:20;20.48;;;10.25;;
49101;SDS011;34913;47.520;19.186;2023-02-28T02:50:54;19.50;;;10.60;;
49101;SDS011;34913;47.520;19.186;2023-02-28T02:53:23;18.75;;;10.13;;
49101;SDS011;34913;47.520;19.186;2023-02-28T02:55:54;18.98;;;10.45;;
49101;SDS011;34913;47.520;19.186;2023-02-28T02:58:24;17.10;;;9.48;;
49101;SDS011;34913;47.520;19.186;2023-02-28T03:00:56;16.50;;;9.10;;
49101;SDS011;34913;47.520;19.186;2023-02-28T03:03:25;17.15;;;9.52;;
49101;SDS011;34913;47.520;19.186;2023-02-28T03:05:57;16.95;;;9.57;;
49101;SDS011;34913;47.520;19.186;2023-02-28T03:08:24;19.95;;;10.15;;
49101;SDS011;34913;47.520;19.186;2023-02-28T03:10:52;18.98;;;10.10;;
49101;SDS011;34913;47.520;19.186;2023-02-28T03:21:40;26.58;;;14.93;;
49101;SDS011;34913;47.520;19.186;2023-02-28T03:26:39;19.23;;;12.07;;
49101;SDS011;34913;47.520;19.186;2023-02-28T03:31:57;19.25;;;10.13;;
49101;SDS011;34913;47.520;19.186;2023-02-28T03:34:34;17.45;;;10.18;;
49101;SDS011;34913;47.520;19.186;2023-02-28T03:37:08;17.20;;;9.15;;
49101;SDS011;34913;47.520;19.186;2023-02-28T03:39:46;19.20;;;9.98;;
49101;SDS011;34913;47.520;19.186;2023-02-28T03:42:23;14.35;;;9.50;;
49101;SDS011;34913;47.520;19.186;2023-02-28T03:45:02;17.75;;;9.77;;
49101;SDS011;34913;47.520;19.186;2023-02-28T03:47:36;19.02;;;10.60;;
49101;SDS011;34913;47.520;19.186;2023-02-28T03:50:11;18.38;;;10.23;;
49101;SDS011;34913;47.520;19.186;2023-02-28T03:53:08;18.20;;;10.07;;
49101;SDS011;34913;47.520;19.186;2023-02-28T03:55:37;20.58;;;10.25;;
49101;SDS011;34913;47.520;19.186;2023-02-28T03:58:30;20.60;;;10.23;;
49101;SDS011;34913;47.520;19.186;2023-02-28T04:01:12;18.70;;;10.43;;
49101;SDS011;34913;47.520;19.186;2023-02-28T04:03:43;18.40;;;10.05;;
49101;SDS011;34913;47.520;19.186;2023-02-28T04:06:13;19.45;;;10.43;;
49101;SDS011;34913;47.520;19.186;2023-02-28T04:08:46;18.73;;;10.20;;
49101;SDS011;34913;47.520;19.186;2023-02-28T04:13:43;16.92;;;10.10;;
49101;SDS011;34913;47.520;19.186;2023-02-28T04:16:09;17.05;;;9.65;;
49101;SDS011;34913;47.520;19.186;2023-02-28T04:18:41;18.83;;;10.23;;
49101;SDS011;34913;47.520;19.186;2023-02-28T04:21:10;17.80;;;10.27;;
49101;SDS011;34913;47.520;19.186;2023-02-28T04:23:36;17.27;;;8.98;;
49101;SDS011;34913;47.520;19.186;2023-02-28T04:26:01;17.23;;;9.98;;
49101;SDS011;34913;47.520;19.186;2023-02-28T04:28:27;16.80;;;10.18;;
49101;SDS011;34913;47.520;19.186;2023-02-28T04:31:00;19.88;;;10.00;;
49101;SDS011;34913;47.520;19.186;2023-02-28T04:33:27;15.65;;;8.90;;
49101;SDS011;34913;47.520;19.186;2023-02-28T04:36:03;18.08;;;9.55;;
49101;SDS011;34913;47.520;19.186;2023-02-28T04:38:34;19.77;;;9.80;;
49101;SDS011;34913;47.520;19.186;2023-02-28T04:41:01;16.45;;;9.43;;
49101;SDS011;34913;47.520;19.186;2023-02-28T04:43:27;16.02;;;9.30;;
49101;SDS011;34913;47.520;19.186;2023-02-28T04:45:53;16.08;;;9.07;;
49101;SDS011;34913;47.520;19.186;2023-02-28T04:48:26;14.75;;;8.35;;
49101;SDS011;34913;47.520;19.186;2023-02-28T04:50:53;15.88;;;8.82;;
49101;SDS011;34913;47.520;19.186;2023-02-28T04:53:19;18.20;;;8.85;;
49101;SDS011;34913;47.520;19.186;2023-02-28T04:55:45;16.40;;;9.43;;
49101;SDS011;34913;47.520;19.186;2023-02-28T04:58:11;18.85;;;8.77;;
49101;SDS011;34913;47.520;19.186;2023-02-28T05:00:37;17.67;;;8.90;;
49101;SDS011;34913;47.520;19.186;2023-02-28T05:03:03;15.73;;;9.27;;
49101;SDS011;34913;47.520;19.186;2023-02-28T05:05:28;17.67;;;9.23;;
49101;SDS011;34913;47.520;19.186;2023-02-28T05:07:53;14.30;;;8.65;;
49101;SDS011;34913;47.520;19.186;2023-02-28T05:10:20;17.13;;;9.15;;
49101;SDS011;34913;47.520;19.186;2023-02-28T05:12:47;17.95;;;8.55;;
49101;SDS011;34913;47.520;19.186;2023-02-28T05:15:13;16.23;;;8.52;;
49101;SDS011;34913;47.520;19.186;2023-02-28T05:17:40;17.13;;;9.10;;
49101;SDS011;34913;47.520;19.186;2023-02-28T05:20:06;18.05;;;9.02;;
49101;SDS011;34913;47.520;19.186;2023-02-28T05:22:32;16.05;;;9.23;;
49101;SDS011;34913;47.520;19.186;2023-02-28T05:24:57;15.00;;;8.77;;
49101;SDS011;34913;47.520;19.186;2023-02-28T05:27:23;13.40;;;8.55;;
49101;SDS011;34913;47.520;19.186;2023-02-28T05:29:48;14.90;;;8.82;;
49101;SDS011;34913;47.520;19.186;2023-02-28T05:32:14;16.38;;;8.43;;
49101;SDS011;34913;47.520;19.186;2023-02-28T05:34:39;13.45;;;7.47;;
49101;SDS011;34913;47.520;19.186;2023-02-28T05:37:06;13.35;;;7.63;;
49101;SDS011;34913;47.520;19.186;2023-02-28T05:39:32;14.57;;;8.00;;
49101;SDS011;34913;47.520;19.186;2023-02-28T05:41:57;13.85;;;8.05;;
49101;SDS011;34913;47.520;19.186;2023-02-28T05:44:22;13.55;;;8.07;;
49101;SDS011;34913;47.520;19.186;2023-02-28T05:46:48;11.80;;;7.50;;
49101;SDS011;34913;47.520;19.186;2023-02-28T05:49:13;15.52;;;7.75;;
49101;SDS011;34913;47.520;19.186;2023-02-28T05:51:39;13.82;;;7.78;;
49101;SDS011;34913;47.520;19.186;2023-02-28T05:54:05;15.10;;;8.48;;
49101;SDS011;34913;47.520;19.186;2023-02-28T05:56:31;19.27;;;9.93;;
49101;SDS011;34913;47.520;19.186;2023-02-28T05:58:59;18.80;;;10.13;;
49101;SDS011;34913;47.520;19.186;2023-02-28T06:04:01;14.38;;;8.35;;
49101;SDS011;34913;47.520;19.186;2023-02-28T06:06:28;15.30;;;7.78;;
49101;SDS011;34913;47.520;19.186;2023-02-28T06:08:59;14.32;;;7.53;;
49101;SDS011;34913;47.520;19.186;2023-02-28T06:11:26;13.05;;;6.97;;
49101;SDS011;34913;47.520;19.186;2023-02-28T06:13:58;13.90;;;7.05;;
49101;SDS011;34913;47.520;19.186;2023-02-28T06:16:26;48.10;;;21.10;;
49101;SDS011;34913;47.520;19.186;2023-02-28T06:18:52;37.10;;;16.00;;
49101;SDS011;34913;47.520;19.186;2023-02-28T06:21:20;30.08;;;14.82;;
49101;SDS011;34913;47.520;19.186;2023-02-28T06:23:47;20.52;;;10.63;;
49101;SDS011;34913;47.520;19.186;2023-02-28T06:26:12;22.52;;;11.48;;
49101;SDS011;34913;47.520;19.186;2023-02-28T06:28:38;12.60;;;7.30;;
49101;SDS011;34913;47.520;19.186;2023-02-28T06:31:07;11.18;;;6.38;;
49101;SDS011;34913;47.520;19.186;2023-02-28T06:33:37;12.10;;;6.75;;
49101;SDS011;34913;47.520;19.186;2023-02-28T06:36:04;12.70;;;6.78;;
49101;SDS011;34913;47.520;19.186;2023-02-28T06:38:30;13.00;;;7.10;;
49101;SDS011;34913;47.520;19.186;2023-02-28T06:40:57;10.88;;;6.13;;
49101;SDS011;34913;47.520;19.186;2023-02-28T06:43:23;13.35;;;6.63;;
49101;SDS011;34913;47.520;19.186;2023-02-28T06:45:49;10.70;;;6.13;;
49101;SDS011;34913;47.520;19.186;2023-02-28T06:48:15;13.68;;;6.22;;
49101;SDS011;34913;47.520;19.186;2023-02-28T06:50:41;12.43;;;6.88;;
49101;SDS011;34913;47.520;19.186;2023-02-28T06:53:06;13.57;;;6.57;;
49101;SDS011;34913;47.520;19.186;2023-02-28T06:55:32;14.85;;;8.15;;
49101;SDS011;34913;47.520;19.186;2023-02-28T06:57:57;12.23;;;5.93;;
49101;SDS011;34913;47.520;19.186;2023-02-28T07:00:23;12.18;;;5.78;;
49101;SDS011;34913;47.520;19.186;2023-02-28T07:02:50;11.05;;;5.72;;
49101;SDS011;34913;47.520;19.186;2023-02-28T07:05:15;12.30;;;6.63;;
49101;SDS011;34913;47.520;19.186;2023-02-28T07:07:40;12.90;;;6.70;;
49101;SDS011;34913;47.520;19.186;2023-02-28T07:10:09;23.98;;;6.82;;
49101;SDS011;34913;47.520;19.186;2023-02-28T07:12:36;13.05;;;6.30;;
49101;SDS011;34913;47.520;19.186;2023-02-28T07:15:02;12.57;;;6.47;;
49101;SDS011;34913;47.520;19.186;2023-02-28T07:17:28;11.68;;;6.68;;
49101;SDS011;34913;47.520;19.186;2023-02-28T07:19:53;12.85;;;6.22;;
49101;SDS011;34913;47.520;19.186;2023-02-28T07:22:19;10.52;;;6.13;;
49101;SDS011;34913;47.520;19.186;2023-02-28T07:24:44;10.77;;;6.05;;
49101;SDS011;34913;47.520;19.186;2023-02-28T07:27:09;12.63;;;6.00;;
49101;SDS011;34913;47.520;19.186;2023-02-28T07:29:35;9.93;;;5.78;;
49101;SDS011;34913;47.520;19.186;2023-02-28T07:32:01;13.95;;;6.18;;
49101;SDS011;34913;47.520;19.186;2023-02-28T07:34:26;14.15;;;6.53;;
49101;SDS011;34913;47.520;19.186;2023-02-28T07:36:52;12.45;;;6.50;;
49101;SDS011;34913;47.520;19.186;2023-02-28T07:39:19;10.90;;;5.53;;
49101;SDS011;34913;47.520;19.186;2023-02-28T07:41:45;15.05;;;6.95;;
49101;SDS011;34913;47.520;19.186;2023-02-28T07:44:11;9.63;;;5.28;;
49101;SDS011;34913;47.520;19.186;2023-02-28T07:46:37;8.63;;;4.82;;
49101;SDS011;34913;47.520;19.186;2023-02-28T07:49:03;11.38;;;5.03;;
49101;SDS011;34913;47.520;19.186;2023-02-28T07:51:29;8.95;;;5.05;;
49101;SDS011;34913;47.520;19.186;2023-02-28T07:53:55;8.10;;;4.85;;
49101;SDS011;34913;47.520;19.186;2023-02-28T07:56:21;9.25;;;4.93;;
49101;SDS011;34913;47.520;19.186;2023-02-28T07:58:46;7.68;;;4.68;;
49101;SDS011;34913;47.520;19.186;2023-02-28T08:01:12;8.75;;;4.78;;
49101;SDS011;34913;47.520;19.186;2023-02-28T08:03:38;12.60;;;4.85;;
49101;SDS011;34913;47.520;19.186;2023-02-28T08:06:05;7.40;;;4.72;;
49101;SDS011;34913;47.520;19.186;2023-02-28T08:08:32;8.73;;;4.55;;
49101;SDS011;34913;47.520;19.186;2023-02-28T08:10:59;8.93;;;4.80;;
49101;SDS011;34913;47.520;19.186;2023-02-28T08:13:26;8.68;;;5.07;;
49101;SDS011;34913;47.520;19.186;2023-02-28T08:15:52;9.07;;;4.38;;
49101;SDS011;34913;47.520;19.186;2023-02-28T08:18:21;8.45;;;4.30;;
49101;SDS011;34913;47.520;19.186;2023-02-28T08:20:47;7.85;;;4.47;;
49101;SDS011;34913;47.520;19.186;2023-02-28T08:23:13;8.48;;;4.95;;
49101;SDS011;34913;47.520;19.186;2023-02-28T08:25:39;8.52;;;4.50;;
49101;SDS011;34913;47.520;19.186;2023-02-28T08:28:04;7.07;;;4.22;;
49101;SDS011;34913;47.520;19.186;2023-02-28T08:30:30;7.05;;;4.10;;
49101;SDS011;34913;47.520;19.186;2023-02-28T08:32:56;8.63;;;4.78;;
49101;SDS011;34913;47.520;19.186;2023-02-28T08:35:21;8.13;;;3.90;;
49101;SDS011;34913;47.520;19.186;2023-02-28T08:37:47;9.90;;;3.92;;
49101;SDS011;34913;47.520;19.186;2023-02-28T08:40:13;7.03;;;4.47;;
49101;SDS011;34913;47.520;19.186;2023-02-28T08:42:43;7.53;;;4.35;;
49101;SDS011;34913;47.520;19.186;2023-02-28T08:45:09;7.97;;;4.60;;
49101;SDS011;34913;47.520;19.186;2023-02-28T08:47:35;9.60;;;5.20;;
49101;SDS011;34913;47.520;19.186;2023-02-28T08:50:01;9.68;;;4.47;;
49101;SDS011;34913;47.520;19.186;2023-02-28T08:52:26;7.25;;;4.28;;
49101;SDS011;34913;47.520;19.186;2023-02-28T08:54:52;8.40;;;4.65;;
49101;SDS011;34913;47.520;19.186;2023-02-28T08:57:17;7.25;;;4.57;;
49101;SDS011;34913;47.520;19.186;2023-02-28T08:59:42;8.15;;;4.50;;
49101;SDS011;34913;47.520;19.186;2023-02-28T09:02:08;9.75;;;4.68;;
49101;SDS011;34913;47.520;19.186;2023-02-28T09:04:37;7.63;;;4.38;;
49101;SDS011;34913;47.520;19.186;2023-02-28T09:07:02;5.93;;;3.90;;
49101;SDS011;34913;47.520;19.186;2023-02-28T09:09:27;7.32;;;3.97;;
49101;SDS011;34913;47.520;19.186;2023-02-28T09:11:55;8.30;;;4.68;;
49101;SDS011;34913;47.520;19.186;2023-02-28T09:14:20;9.82;;;4.35;;
49101;SDS011;34913;47.520;19.186;2023-02-28T09:16:46;7.65;;;4.20;;
49101;SDS011;34913;47.520;19.186;2023-02-28T09:19:11;6.50;;;4.28;;
49101;SDS011;34913;47.520;19.186;2023-02-28T09:21:37;7.57;;;4.22;;
49101;SDS011;34913;47.520;19.186;2023-02-28T09:24:02;7.63;;;4.43;;
49101;SDS011;34913;47.520;19.186;2023-02-28T09:26:28;12.20;;;4.57;;
49101;SDS011;34913;47.520;19.186;2023-02-28T09:28:54;7.22;;;4.25;;
49101;SDS011;34913;47.520;19.186;2023-02-28T09:31:21;7.20;;;4.18;;
49101;SDS011;34913;47.520;19.186;2023-02-28T09:33:50;5.95;;;4.07;;
49101;SDS011;34913;47.520;19.186;2023-02-28T09:36:17;6.93;;;4.53;;
49101;SDS011;34913;47.520;19.186;2023-02-28T09:38:43;8.18;;;4.45;;
49101;SDS011;34913;47.520;19.186;2023-02-28T09:41:43;6.55;;;4.45;;
49101;SDS011;34913;47.520;19.186;2023-02-28T09:44:12;6.85;;;4.00;;
49101;SDS011;34913;47.520;19.186;2023-02-28T09:46:46;10.55;;;4.72;;
49101;SDS011;34913;47.520;19.186;2023-02-28T09:49:19;8.00;;;4.57;;
49101;SDS011;34913;47.520;19.186;2023-02-28T09:51:56;8.60;;;4.78;;
49101;SDS011;34913;47.520;19.186;2023-02-28T09:54:27;9.23;;;5.05;;
49101;SDS011;34913;47.520;19.186;2023-02-28T09:57:05;12.07;;;5.75;;
49101;SDS011;34913;47.520;19.186;2023-02-28T09:59:39;6.65;;;4.18;;
49101;SDS011;34913;47.520;19.186;2023-02-28T10:05:03;10.38;;;4.82;;
49101;SDS011;34913;47.520;19.186;2023-02-28T10:08:08;7.38;;;4.82;;
49101;SDS011;34913;47.520;19.186;2023-02-28T10:15:38;7.88;;;4.72;;
49101;SDS011;34913;47.520;19.186;2023-02-28T10:18:05;8.13;;;5.18;;
49101;SDS011;34913;47.520;19.186;2023-02-28T10:20:38;8.68;;;4.70;;
49101;SDS011;34913;47.520;19.186;2023-02-28T10:25:38;7.68;;;5.28;;
49101;SDS011;34913;47.520;19.186;2023-02-28T10:28:11;7.93;;;5.15;;
49101;SDS011;34913;47.520;19.186;2023-02-28T10:30:39;8.00;;;4.93;;
49101;SDS011;34913;47.520;19.186;2023-02-28T10:33:17;7.15;;;4.68;;
49101;SDS011;34913;47.520;19.186;2023-02-28T10:38:18;8.65;;;4.57;;
49101;SDS011;34913;47.520;19.186;2023-02-28T10:45:51;6.47;;;4.38;;
49101;SDS011;34913;47.520;19.186;2023-02-28T10:53:24;9.13;;;4.32;;
49101;SDS011;34913;47.520;19.186;2023-02-28T10:58:24;7.25;;;4.22;;
49101;SDS011;34913;47.520;19.186;2023-02-28T11:00:51;7.70;;;4.30;;
49101;SDS011;34913;47.520;19.186;2023-02-28T11:03:33;8.70;;;4.55;;
49101;SDS011;34913;47.520;19.186;2023-02-28T11:06:07;10.63;;;5.05;;
49101;SDS011;34913;47.520;19.186;2023-02-28T11:08:45;6.85;;;4.20;;
49101;SDS011;34913;47.520;19.186;2023-02-28T11:11:14;8.77;;;4.30;;
49101;SDS011;34913;47.520;19.186;2023-02-28T11:13:41;7.82;;;4.05;;
49101;SDS011;34913;47.520;19.186;2023-02-28T11:16:10;6.72;;;3.67;;
49101;SDS011;34913;47.520;19.186;2023-02-28T11:21:21;6.43;;;3.78;;
49101;SDS011;34913;47.520;19.186;2023-02-28T11:23:50;8.00;;;3.85;;
49101;SDS011;34913;47.520;19.186;2023-02-28T11:26:39;6.53;;;3.85;;
49101;SDS011;34913;47.520;19.186;2023-02-28T11:29:27;6.03;;;3.30;;
49101;SDS011;34913;47.520;19.186;2023-02-28T11:34:26;8.30;;;3.80;;
49101;SDS011;34913;47.520;19.186;2023-02-28T11:36:53;7.20;;;3.80;;
49101;SDS011;34913;47.520;19.186;2023-02-28T11:39:21;7.13;;;3.75;;
49101;SDS011;34913;47.520;19.186;2023-02-28T11:50:14;6.00;;;3.38;;
49101;SDS011;34913;47.520;19.186;2023-02-28T11:52:57;5.93;;;3.45;;
49101;SDS011;34913;47.520;19.186;2023-02-28T12:00:58;5.78;;;3.28;;
49101;SDS011;34913;47.520;19.186;2023-02-28T12:06:38;7.00;;;3.80;;
49101;SDS011;34913;47.520;19.186;2023-02-28T12:09:19;7.13;;;3.67;;
49101;SDS011;34913;47.520;19.186;2023-02-28T12:23:18;6.33;;;4.10;;
49101;SDS011;34913;47.520;19.186;2023-02-28T12:26:03;7.22;;;3.80;;
49101;SDS011;34913;47.520;19.186;2023-02-28T12:28:54;6.32;;;3.72;;
49101;SDS011;34913;47.520;19.186;2023-02-28T12:31:33;6.13;;;3.50;;
49101;SDS011;34913;47.520;19.186;2023-02-28T12:34:03;6.30;;;3.40;;
49101;SDS011;34913;47.520;19.186;2023-02-28T12:36:35;7.90;;;3.60;;
49101;SDS011;34913;47.520;19.186;2023-02-28T12:44:13;6.10;;;3.00;;
49101;SDS011;34913;47.520;19.186;2023-02-28T12:46:45;8.05;;;3.28;;
49101;SDS011;34913;47.520;19.186;2023-02-28T12:49:19;7.53;;;3.58;;
49101;SDS011;34913;47.520;19.186;2023-02-28T12:51:46;5.60;;;3.40;;
49101;SDS011;34913;47.520;19.186;2023-02-28T12:54:15;6.43;;;3.60;;
49101;SDS011;34913;47.520;19.186;2023-02-28T12:56:56;9.57;;;4.93;;
49101;SDS011;34913;47.520;19.186;2023-02-28T12:59:37;9.45;;;4.72;;
49101;SDS011;34913;47.520;19.186;2023-02-28T13:02:09;5.55;;;3.50;;
49101;SDS011;34913;47.520;19.186;2023-02-28T13:05:02;4.35;;;2.95;;
49101;SDS011;34913;47.520;19.186;2023-02-28T13:10:40;6.70;;;3.20;;
49101;SDS011;34913;47.520;19.186;2023-02-28T13:13:13;4.85;;;3.33;;
49101;SDS011;34913;47.520;19.186;2023-02-28T13:15:41;5.70;;;3.03;;
49101;SDS011;34913;47.520;19.186;2023-02-28T13:18:39;5.72;;;2.97;;
49101;SDS011;34913;47.520;19.186;2023-02-28T13:21:23;3.83;;;2.80;;
49101;SDS011;34913;47.520;19.186;2023-02-28T13:34:36;7.05;;;3.90;;
49101;SDS011;34913;47.520;19.186;2023-02-28T13:58:21;6.85;;;4.13;;
49101;SDS011;34913;47.520;19.186;2023-02-28T14:01:12;7.60;;;3.83;;
49101;SDS011;34913;47.520;19.186;2023-02-28T14:06:48;5.78;;;3.85;;
49101;SDS011;34913;47.520;19.186;2023-02-28T14:09:25;6.27;;;3.90;;
49101;SDS011;34913;47.520;19.186;2023-02-28T14:11:51;6.43;;;4.00;;
49101;SDS011;34913;47.520;19.186;2023-02-28T14:17:05;7.50;;;4.10;;
49101;SDS011;34913;47.520;19.186;2023-02-28T14:19:35;5.30;;;3.70;;
49101;SDS011;34913;47.520;19.186;2023-02-28T14:22:12;5.80;;;4.00;;
49101;SDS011;34913;47.520;19.186;2023-02-28T14:35:05;6.50;;;4.05;;
49101;SDS011;34913;47.520;19.186;2023-02-28T14:37:51;9.88;;;4.50;;
49101;SDS011;34913;47.520;19.186;2023-02-28T14:42:55;7.97;;;4.88;;
49101;SDS011;34913;47.520;19.186;2023-02-28T14:45:26;9.85;;;5.10;;
49101;SDS011;34913;47.520;19.186;2023-02-28T14:47:54;8.90;;;4.80;;
49101;SDS011;34913;47.520;19.186;2023-02-28T14:50:22;9.88;;;5.05;;
49101;SDS011;34913;47.520;19.186;2023-02-28T14:52:51;10.25;;;5.15;;
49101;SDS011;34913;47.520;19.186;2023-02-28T14:55:20;7.28;;;4.82;;
49101;SDS011;34913;47.520;19.186;2023-02-28T14:57:59;7.80;;;4.95;;
49101;SDS011;34913;47.520;19.186;2023-02-28T15:00:35;7.30;;;4.07;;
49101;SDS011;34913;47.520;19.186;2023-02-28T15:06:12;7.75;;;4.63;;
49101;SDS011;34913;47.520;19.186;2023-02-28T15:08:40;6.97;;;4.72;;
49101;SDS011;34913;47.520;19.186;2023-02-28T15:11:07;13.80;;;4.57;;
49101;SDS011;34913;47.520;19.186;2023-02-28T15:13:42;11.18;;;5.18;;
49101;SDS011;34913;47.520;19.186;2023-02-28T15:21:32;8.93;;;4.63;;
49101;SDS011;34913;47.520;19.186;2023-02-28T15:24:07;7.65;;;4.85;;
49101;SDS011;34913;47.520;19.186;2023-02-28T15:26:41;7.70;;;4.60;;
49101;SDS011;34913;47.520;19.186;2023-02-28T15:29:14;9.88;;;5.20;;
49101;SDS011;34913;47.520;19.186;2023-02-28T15:31:45;8.75;;;4.93;;
49101;SDS011;34913;47.520;19.186;2023-02-28T15:34:18;7.93;;;4.78;;
49101;SDS011;34913;47.520;19.186;2023-02-28T15:36:46;10.38;;;5.20;;
49101;SDS011;34913;47.520;19.186;2023-02-28T15:39:22;9.68;;;5.38;;
49101;SDS011;34913;47.520;19.186;2023-02-28T15:41:49;8.20;;;5.18;;
49101;SDS011;34913;47.520;19.186;2023-02-28T15:44:28;7.95;;;5.05;;
49101;SDS011;34913;47.520;19.186;2023-02-28T15:49:45;8.13;;;4.80;;
49101;SDS011;34913;47.520;19.186;2023-02-28T15:52:20;10.68;;;5.13;;
49101;SDS011;34913;47.520;19.186;2023-02-28T15:54:49;9.40;;;5.07;;
49101;SDS011;34913;47.520;19.186;2023-02-28T15:57:23;8.90;;;5.50;;
49101;SDS011;34913;47.520;19.186;2023-02-28T15:59:57;9.73;;;5.50;;
49101;SDS011;34913;47.520;19.186;2023-02-28T16:02:35;12.20;;;5.60;;
49101;SDS011;34913;47.520;19.186;2023-02-28T16:07:43;10.85;;;5.22;;
49101;SDS011;34913;47.520;19.186;2023-02-28T16:10:10;8.52;;;5.30;;
49101;SDS011;34913;47.520;19.186;2023-02-28T16:12:39;10.65;;;5.93;;
49101;SDS011;34913;47.520;19.186;2023-02-28T16:15:06;10.25;;;5.70;;
49101;SDS011;34913;47.520;19.186;2023-02-28T16:17:35;8.82;;;5.50;;
49101;SDS011;34913;47.520;19.186;2023-02-28T16:20:16;10.45;;;5.70;;
49101;SDS011;34913;47.520;19.186;2023-02-28T16:22:42;7.97;;;5.38;;
49101;SDS011;34913;47.520;19.186;2023-02-28T16:25:15;8.57;;;4.75;;
49101;SDS011;34913;47.520;19.186;2023-02-28T16:27:43;10.68;;;5.45;;
49101;SDS011;34913;47.520;19.186;2023-02-28T16:30:21;8.77;;;5.72;;
49101;SDS011;34913;47.520;19.186;2023-02-28T16:32:51;10.38;;;5.82;;
49101;SDS011;34913;47.520;19.186;2023-02-28T16:35:19;13.00;;;6.78;;
49101;SDS011;34913;47.520;19.186;2023-02-28T16:37:45;13.30;;;7.82;;
49101;SDS011;34913;47.520;19.186;2023-02-28T16:40:24;14.52;;;7.65;;
49101;SDS011;34913;47.520;19.186;2023-02-28T16:42:51;11.10;;;6.50;;
49101;SDS011;34913;47.520;19.186;2023-02-28T16:45:24;16.02;;;8.27;;
49101;SDS011;34913;47.520;19.186;2023-02-28T16:47:51;11.43;;;6.57;;
49101;SDS011;34913;47.520;19.186;2023-02-28T16:50:17;15.88;;;8.10;;
49101;SDS011;34913;47.520;19.186;2023-02-28T16:52:48;11.60;;;7.07;;
49101;SDS011;34913;47.520;19.186;2023-02-28T16:55:14;11.23;;;6.70;;
49101;SDS011;34913;47.520;19.186;2023-02-28T16:57:40;10.23;;;6.55;;
49101;SDS011;34913;47.520;19.186;2023-02-28T17:00:07;12.95;;;6.53;;
49101;SDS011;34913;47.520;19.186;2023-02-28T17:02:36;11.85;;;7.20;;
49101;SDS011;34913;47.520;19.186;2023-02-28T17:05:01;14.50;;;7.80;;
49101;SDS011;34913;47.520;19.186;2023-02-28T17:07:27;10.95;;;7.15;;
49101;SDS011;34913;47.520;19.186;2023-02-28T17:09:54;10.10;;;6.25;;
49101;SDS011;34913;47.520;19.186;2023-02-28T17:12:19;10.20;;;6.57;;
49101;SDS011;34913;47.520;19.186;2023-02-28T17:14:45;11.65;;;6.35;;
49101;SDS011;34913;47.520;19.186;2023-02-28T17:17:15;10.20;;;6.50;;
49101;SDS011;34913;47.520;19.186;2023-02-28T17:19:43;13.95;;;7.60;;
49101;SDS011;34913;47.520;19.186;2023-02-28T17:22:09;13.52;;;7.50;;
49101;SDS011;34913;47.520;19.186;2023-02-28T17:24:35;10.60;;;6.65;;
49101;SDS011;34913;47.520;19.186;2023-02-28T17:27:00;12.13;;;7.50;;
49101;SDS011;34913;47.520;19.186;2023-02-28T17:29:26;13.50;;;7.97;;
49101;SDS011;34913;47.520;19.186;2023-02-28T17:31:52;10.82;;;6.97;;
49101;SDS011;34913;47.520;19.186;2023-02-28T17:34:17;12.57;;;7.75;;
49101;SDS011;34913;47.520;19.186;2023-02-28T17:36:48;10.27;;;6.63;;